Time;durP1;ratioP1;P1;durP2;ratioP2;P2;SDS_P1;SDS_P2;PMS_P1;PMS_P2;Temp;Humidity;BMP_temperature;BMP_pressure;BME280_temperature;BME280_humidity;BME280_pressure;Samples;Min_cycle;Max_cycle;Signal;HPM_P1;HPM_P2
2022/10/21 00:01:32;;;;;;;18.37;12.60;;;;;;;15.97;100.00;100242.00;5029323;28;20689;-60
2022/10/21 00:04:01;;;;;;;23.37;12.77;;;;;;;16.01;100.00;100221.88;5029622;28;20634;-59
2022/10/21 00:06:29;;;;;;;19.73;12.90;;;;;;;16.01;100.00;100237.94;5027922;28;20212;-60
2022/10/21 00:08:56;;;;;;;19.70;12.77;;;;;;;15.98;100.00;100254.38;5025044;28;20213;-59
2022/10/21 00:11:24;;;;;;;18.97;12.30;;;;;;;15.98;100.00;100262.41;5025460;28;20299;-60
2022/10/21 00:13:52;;;;;;;18.17;12.10;;;;;;;16.02;100.00;100271.69;5028450;28;20283;-60
2022/10/21 00:16:19;;;;;;;18.13;12.80;;;;;;;16.00;100.00;100268.41;5030043;28;20258;-60
2022/10/21 00:18:49;;;;;;;18.33;13.20;;;;;;;16.03;100.00;100272.50;5028227;28;20218;-59
2022/10/21 00:21:19;;;;;;;21.57;13.07;;;;;;;16.03;100.00;100278.69;5031573;28;20330;-59
2022/10/21 00:23:48;;;;;;;22.93;12.87;;;;;;;16.06;100.00;100272.16;5026489;28;20251;-60
2022/10/21 00:26:17;;;;;;;20.53;12.37;;;;;;;16.11;100.00;100275.06;5026912;28;20266;-59
2022/10/21 00:28:45;;;;;;;21.20;13.10;;;;;;;16.11;100.00;100265.22;5030546;28;20596;-60
2022/10/21 00:31:15;;;;;;;18.87;11.37;;;;;;;16.16;100.00;100267.34;5033433;28;20209;-60
2022/10/21 00:33:44;;;;;;;16.33;11.67;;;;;;;16.23;100.00;100273.56;5034244;28;20641;-59
2022/10/21 00:36:14;;;;;;;17.23;12.13;;;;;;;16.19;100.00;100274.97;5038971;28;20208;-59
2022/10/21 00:38:43;;;;;;;16.53;12.03;;;;;;;16.23;100.00;100264.72;5026498;28;20297;-59
2022/10/21 00:41:12;;;;;;;19.87;12.23;;;;;;;16.20;100.00;100241.84;5028915;28;20295;-61
2022/10/21 00:43:54;;;;;;;17.03;12.07;;;;;;;16.13;100.00;100249.81;5030428;28;20650;-60
2022/10/21 00:46:29;;;;;;;21.10;12.77;;;;;;;16.09;100.00;100256.56;5028028;28;20267;-59
2022/10/21 00:48:59;;;;;;;17.67;11.60;;;;;;;16.08;100.00;100254.91;5029672;28;20266;-60
2022/10/21 00:51:29;;;;;;;16.20;11.57;;;;;;;16.07;100.00;100226.50;5030935;28;20209;-58
2022/10/21 00:53:57;;;;;;;17.17;12.67;;;;;;;16.07;100.00;100223.81;5030491;28;21151;-58
2022/10/21 00:56:27;;;;;;;18.70;11.33;;;;;;;16.02;100.00;100244.09;5029417;28;20910;-59
2022/10/21 00:58:59;;;;;;;18.40;12.07;;;;;;;16.07;100.00;100223.00;5030696;28;20197;-58
2022/10/21 01:01:27;;;;;;;18.40;11.70;;;;;;;16.09;100.00;100197.72;5029856;28;20201;-59
2022/10/21 01:03:54;;;;;;;16.63;11.10;;;;;;;16.06;100.00;100171.34;5027792;28;20298;-58
2022/10/21 01:06:25;;;;;;;17.40;11.40;;;;;;;16.11;100.00;100168.91;5029989;28;20239;-62
2022/10/21 01:08:56;;;;;;;17.90;12.60;;;;;;;16.11;100.00;100152.88;5025463;28;20213;-60
2022/10/21 01:11:26;;;;;;;20.33;12.00;;;;;;;16.14;100.00;100173.91;5023975;28;20205;-60
2022/10/21 01:14:20;;;;;;;18.93;12.03;;;;;;;16.17;100.00;100208.28;5035064;28;20294;-60
2022/10/21 01:16:53;;;;;;;18.50;12.03;;;;;;;16.18;100.00;100191.19;5034527;28;20205;-60
2022/10/21 01:20:02;;;;;;;17.00;12.27;;;;;;;16.14;100.00;100184.59;5029620;28;20212;-60
2022/10/21 01:22:51;;;;;;;18.07;12.73;;;;;;;16.11;100.00;100182.28;5029500;28;20635;-59
2022/10/21 01:25:57;;;;;;;20.50;13.53;;;;;;;16.07;100.00;100164.97;5033156;28;20233;-59
2022/10/21 01:28:40;;;;;;;19.90;14.00;;;;;;;16.02;100.00;100186.09;5016984;28;20223;-59
2022/10/21 01:31:15;;;;;;;22.20;12.73;;;;;;;15.97;100.00;100191.22;5031342;28;20208;-59
2022/10/21 01:33:50;;;;;;;19.60;14.13;;;;;;;15.98;100.00;100194.72;5029343;28;20213;-60
2022/10/21 01:36:31;;;;;;;20.60;13.87;;;;;;;15.97;100.00;100182.34;5030373;28;20199;-61
2022/10/21 01:39:12;;;;;;;18.57;13.23;;;;;;;15.95;100.00;100163.81;5033154;28;20204;-61
2022/10/21 01:41:44;;;;;;;21.57;12.50;;;;;;;15.97;100.00;100163.63;5031019;28;20275;-60
2022/10/21 01:44:21;;;;;;;19.77;12.80;;;;;;;15.92;100.00;100164.19;5034354;28;20203;-60
2022/10/21 01:46:56;;;;;;;19.43;13.13;;;;;;;15.92;100.00;100166.88;5031761;28;20212;-59
2022/10/21 01:49:29;;;;;;;17.13;12.63;;;;;;;15.91;100.00;100164.41;5033814;28;20208;-59
2022/10/21 01:51:59;;;;;;;23.10;13.57;;;;;;;15.88;100.00;100167.44;5039249;28;20267;-61
2022/10/21 01:54:30;;;;;;;21.60;13.40;;;;;;;15.84;100.00;100166.97;5033947;28;20209;-63
2022/10/21 01:57:01;;;;;;;18.87;13.33;;;;;;;15.81;100.00;100172.72;5032867;28;20208;-61
2022/10/21 01:59:31;;;;;;;20.83;14.07;;;;;;;15.78;100.00;100157.88;5032551;28;20258;-60
2022/10/21 02:02:03;;;;;;;19.20;13.10;;;;;;;15.78;100.00;100168.59;5032308;28;20212;-61
2022/10/21 02:04:33;;;;;;;20.57;13.67;;;;;;;15.78;100.00;100167.75;5030067;28;20270;-61
2022/10/21 02:07:02;;;;;;;21.17;14.30;;;;;;;15.74;100.00;100158.47;5034272;28;20220;-60
2022/10/21 02:09:30;;;;;;;22.00;14.20;;;;;;;15.70;100.00;100158.00;5032790;28;20212;-61
2022/10/21 02:12:01;;;;;;;18.50;13.93;;;;;;;15.71;100.00;100151.66;5035435;28;20224;-61
2022/10/21 02:14:32;;;;;;;21.77;14.97;;;;;;;15.73;100.00;100148.78;5033142;28;20216;-62
2022/10/21 02:17:01;;;;;;;22.90;14.03;;;;;;;15.70;100.00;100135.78;5041735;28;20219;-60
2022/10/21 02:19:31;;;;;;;18.87;14.07;;;;;;;15.67;100.00;100122.78;5030208;28;20215;-61
2022/10/21 02:22:01;;;;;;;20.87;14.00;;;;;;;15.64;100.00;100123.19;5030080;28;20204;-62
2022/10/21 02:24:36;;;;;;;23.13;14.77;;;;;;;15.64;100.00;100101.81;5035299;28;20285;-60
2022/10/21 02:27:04;;;;;;;27.33;15.87;;;;;;;15.60;100.00;100104.03;5029898;28;20207;-62
2022/10/21 02:29:35;;;;;;;22.13;15.37;;;;;;;15.61;100.00;100112.88;5029252;28;20261;-61
2022/10/21 02:32:13;;;;;;;27.90;15.67;;;;;;;15.58;100.00;100114.06;5031280;28;20208;-61
2022/10/21 02:34:55;;;;;;;26.77;15.47;;;;;;;15.60;100.00;100125.41;5033740;28;20203;-61
2022/10/21 02:37:32;;;;;;;22.50;14.90;;;;;;;15.57;100.00;100114.28;5033156;28;20205;-61
2022/10/21 02:40:07;;;;;;;23.90;16.40;;;;;;;15.56;100.00;100121.47;5034948;28;20208;-60
2022/10/21 02:42:39;;;;;;;23.63;15.97;;;;;;;15.56;100.00;100123.31;5031129;28;20227;-61
2022/10/21 02:45:09;;;;;;;27.10;15.87;;;;;;;15.55;100.00;100118.97;5030778;28;20665;-62
2022/10/21 02:47:39;;;;;;;24.40;16.27;;;;;;;15.55;100.00;100118.97;5033294;28;20208;-61
2022/10/21 02:50:08;;;;;;;20.90;14.77;;;;;;;15.54;100.00;100120.81;5035903;28;20216;-60
2022/10/21 02:52:35;;;;;;;23.10;15.23;;;;;;;15.52;100.00;100111.28;5029846;28;20212;-59
2022/10/21 02:55:03;;;;;;;25.30;15.87;;;;;;;15.52;100.00;100100.59;5036452;28;20212;-59
2022/10/21 02:57:31;;;;;;;23.73;14.90;;;;;;;15.55;100.00;100090.41;5035712;28;20278;-60
2022/10/21 02:59:58;;;;;;;21.90;14.63;;;;;;;15.51;100.00;100086.41;5035879;28;20239;-60
2022/10/21 03:02:26;;;;;;;27.30;15.17;;;;;;;15.47;100.00;100073.66;5026011;28;20244;-60
2022/10/21 03:04:55;;;;;;;34.17;15.60;;;;;;;15.47;100.00;100068.28;5029425;28;20209;-60
2022/10/21 03:07:23;;;;;;;23.57;15.80;;;;;;;15.49;100.00;100064.41;5030481;28;20269;-61
2022/10/21 03:09:50;;;;;;;24.47;16.67;;;;;;;15.49;100.00;100061.72;5030267;28;20623;-61
2022/10/21 03:12:18;;;;;;;26.60;16.77;;;;;;;15.47;100.00;100068.28;5028328;28;20227;-61
2022/10/21 03:14:45;;;;;;;29.83;16.97;;;;;;;15.43;100.00;100081.19;5031871;28;20258;-63
2022/10/21 03:17:13;;;;;;;27.57;16.93;;;;;;;15.46;100.00;100080.81;5029641;28;20208;-62
2022/10/21 03:19:40;;;;;;;27.77;15.90;;;;;;;15.43;100.00;100074.00;5034379;28;20211;-60
2022/10/21 03:22:09;;;;;;;28.27;16.47;;;;;;;15.48;100.00;100075.31;5031002;28;20207;-61
2022/10/21 03:24:37;;;;;;;26.27;16.10;;;;;;;15.48;100.00;100070.75;5027998;28;20283;-59
2022/10/21 03:27:05;;;;;;;25.93;16.10;;;;;;;15.53;100.00;100075.53;5034250;28;20221;-61
2022/10/21 03:29:33;;;;;;;25.63;16.03;;;;;;;15.54;100.00;100075.41;5032294;28;20915;-60
2022/10/21 03:32:00;;;;;;;26.83;16.83;;;;;;;15.56;100.00;100085.91;5029638;28;20200;-61
2022/10/21 03:34:28;;;;;;;27.57;16.70;;;;;;;15.55;100.00;100076.22;5032986;28;20251;-60
2022/10/21 03:36:56;;;;;;;30.70;17.20;;;;;;;15.60;100.00;100076.47;5030487;28;20214;-60
2022/10/21 03:39:25;;;;;;;27.63;17.60;;;;;;;15.60;100.00;100076.47;5031524;28;20247;-62
2022/10/21 03:41:52;;;;;;;31.60;17.57;;;;;;;15.59;100.00;100072.97;5028093;28;20235;-60
2022/10/21 03:44:20;;;;;;;27.23;17.10;;;;;;;15.62;100.00;100077.13;5032811;28;20266;-62
2022/10/21 03:46:47;;;;;;;31.13;18.03;;;;;;;15.66;100.00;100067.69;5033100;28;20243;-60
2022/10/21 03:49:15;;;;;;;27.70;17.70;;;;;;;15.71;100.00;100074.13;5028460;28;20960;-60
2022/10/21 03:51:48;;;;;;;32.63;18.50;;;;;;;15.76;100.00;100077.03;5026834;28;20205;-62
2022/10/21 03:54:15;;;;;;;34.17;18.77;;;;;;;15.76;100.00;100077.03;5031179;28;20310;-60
2022/10/21 03:56:47;;;;;;;31.03;18.43;;;;;;;15.77;100.00;100077.88;5028127;28;20918;-60
2022/10/21 03:59:15;;;;;;;36.00;18.63;;;;;;;15.75;100.00;100074.56;5031889;28;20605;-60
2022/10/21 04:01:44;;;;;;;33.80;18.77;;;;;;;15.71;100.00;100068.78;5028642;28;20679;-61
2022/10/21 04:04:13;;;;;;;47.60;20.13;;;;;;;15.73;100.00;100061.41;5037377;28;20258;-59
2022/10/21 04:06:40;;;;;;;36.37;18.70;;;;;;;15.75;100.00;100055.84;5034884;28;20235;-60
2022/10/21 04:09:09;;;;;;;33.73;18.63;;;;;;;15.73;100.00;100057.91;5032788;28;20211;-60
2022/10/21 04:11:37;;;;;;;48.17;21.03;;;;;;;15.75;100.00;100050.50;5033460;28;20216;-61
2022/10/21 04:14:06;;;;;;;38.10;19.63;;;;;;;15.75;100.00;100034.47;5031936;28;20321;-60
2022/10/21 04:16:43;;;;;;;38.73;19.53;;;;;;;15.74;100.00;100038.19;5032983;28;20278;-61
2022/10/21 04:19:17;;;;;;;41.20;19.50;;;;;;;15.72;100.00;100037.53;5034531;28;20196;-60
2022/10/21 04:21:45;;;;;;;38.47;19.20;;;;;;;15.72;100.00;100038.38;5034877;28;20213;-61
2022/10/21 04:24:13;;;;;;;40.13;19.17;;;;;;;15.78;100.00;100039.44;5030312;28;20244;-61
2022/10/21 04:26:41;;;;;;;34.43;17.87;;;;;;;15.75;100.00;100042.47;5030323;28;20204;-61
2022/10/21 04:29:10;;;;;;;35.03;17.03;;;;;;;15.74;100.00;100040.84;5031079;28;20208;-61
2022/10/21 04:31:38;;;;;;;33.33;18.20;;;;;;;15.73;100.00;100029.34;5035786;28;20208;-61
2022/10/21 04:34:05;;;;;;;29.93;16.97;;;;;;;15.73;100.00;100041.88;5032486;28;20932;-61
2022/10/21 04:36:33;;;;;;;30.63;15.53;;;;;;;15.70;100.00;100042.25;5030082;28;20239;-59
2022/10/21 04:39:01;;;;;;;34.17;18.00;;;;;;;15.72;100.00;100026.84;5039902;28;20204;-61
2022/10/21 04:41:28;;;;;;;27.90;16.53;;;;;;;15.70;100.00;100031.53;5032314;28;20216;-61
2022/10/21 04:43:56;;;;;;;30.03;18.07;;;;;;;15.71;100.00;100027.88;5032754;28;20681;-60
2022/10/21 04:46:25;;;;;;;33.40;18.33;;;;;;;15.72;100.00;100014.31;5029825;28;20245;-61
2022/10/21 04:48:53;;;;;;;31.90;17.47;;;;;;;15.71;100.00;99999.28;5033565;28;20263;-60
2022/10/21 04:51:20;;;;;;;35.60;19.03;;;;;;;15.70;100.00;100000.31;5042141;28;20615;-61
2022/10/21 04:53:48;;;;;;;33.73;17.63;;;;;;;15.74;100.00;100003.44;5040296;28;20232;-62
2022/10/21 04:56:25;;;;;;;32.90;18.80;;;;;;;15.70;100.00;100013.66;5040134;28;20208;-60
2022/10/21 04:58:53;;;;;;;33.07;18.80;;;;;;;15.73;100.00;100015.13;5033190;28;20668;-61
2022/10/21 05:01:21;;;;;;;30.43;18.70;;;;;;;15.75;100.00;100013.06;5031589;28;20212;-60
2022/10/21 05:03:50;;;;;;;31.27;19.00;;;;;;;15.76;100.00;100007.53;5036327;28;20212;-59
2022/10/21 05:06:18;;;;;;;31.93;19.23;;;;;;;15.73;100.00;100004.44;5034702;28;20217;-60
2022/10/21 05:08:45;;;;;;;29.13;17.60;;;;;;;15.73;100.00;100007.13;5032276;28;20212;-60
2022/10/21 05:11:13;;;;;;;24.00;15.77;;;;;;;15.81;100.00;100006.97;5030396;28;20214;-60
2022/10/21 05:13:40;;;;;;;28.63;16.57;;;;;;;15.88;100.00;100001.69;5031742;28;20287;-61
2022/10/21 05:16:08;;;;;;;30.90;17.10;;;;;;;15.95;100.00;100006.06;5032138;28;20570;-59
2022/10/21 05:18:36;;;;;;;25.23;15.87;;;;;;;16.00;100.00;100003.63;5030131;28;20611;-58
2022/10/21 05:21:05;;;;;;;24.67;16.07;;;;;;;16.07;100.00;100006.34;5033913;28;20208;-60
2022/10/21 05:23:33;;;;;;;29.87;17.37;;;;;;;16.09;100.00;100007.00;5034154;28;20243;-60
2022/10/21 05:26:00;;;;;;;26.53;16.10;;;;;;;16.13;100.00;100001.06;5033626;28;20231;-59
2022/10/21 05:28:28;;;;;;;25.53;16.70;;;;;;;16.17;100.00;99998.81;5034199;28;20935;-60
2022/10/21 05:30:55;;;;;;;27.03;16.67;;;;;;;16.19;100.00;99996.75;5032870;28;20234;-61
2022/10/21 05:33:23;;;;;;;26.23;15.57;;;;;;;16.23;100.00;99994.53;5031539;28;20212;-60
2022/10/21 05:35:59;;;;;;;27.20;15.93;;;;;;;16.21;100.00;99993.88;5029644;28;20673;-60
2022/10/21 05:38:28;;;;;;;28.00;17.40;;;;;;;16.21;100.00;99991.22;5033541;28;20213;-59
2022/10/21 05:40:56;;;;;;;24.77;15.83;;;;;;;16.24;100.00;100001.53;5032203;28;20633;-59
2022/10/21 05:43:24;;;;;;;33.50;16.10;;;;;;;16.26;100.00;99997.66;5033568;28;20208;-62
2022/10/21 05:45:52;;;;;;;26.30;15.70;;;;;;;16.22;100.00;99999.03;5034852;28;20658;-61
2022/10/21 05:48:20;;;;;;;23.07;14.73;;;;;;;16.23;100.00;99998.03;5035928;28;20208;-63
2022/10/21 05:50:52;;;;;;;25.17;14.60;;;;;;;16.23;100.00;99999.88;5035561;28;20268;-61
2022/10/21 05:53:22;;;;;;;24.83;14.20;;;;;;;16.21;100.00;100002.75;5029663;28;20735;-60
2022/10/21 05:55:58;;;;;;;24.07;14.07;;;;;;;16.22;100.00;100001.72;5031194;28;20277;-60
2022/10/21 05:58:26;;;;;;;20.97;13.70;;;;;;;16.25;100.00;99995.16;5029729;28;20196;-62
2022/10/21 06:00:54;;;;;;;21.20;12.53;;;;;;;16.26;100.00;99991.47;5031923;28;20235;-60
2022/10/21 06:03:23;;;;;;;21.60;12.90;;;;;;;16.28;100.00;99992.06;5030059;28;20267;-61
2022/10/21 06:05:51;;;;;;;18.30;12.43;;;;;;;16.32;100.00;99988.00;5031543;28;20232;-61
2022/10/21 06:08:18;;;;;;;24.03;13.97;;;;;;;16.32;100.00;99993.34;5033454;28;20205;-61
2022/10/21 06:10:46;;;;;;;25.63;14.03;;;;;;;16.30;100.00;99987.38;5031787;28;21240;-61
2022/10/21 06:13:16;;;;;;;20.33;13.47;;;;;;;16.27;100.00;99985.09;5033046;28;20236;-59
2022/10/21 06:15:44;;;;;;;21.17;13.13;;;;;;;16.24;100.00;99983.63;5031759;28;20212;-60
2022/10/21 06:18:17;;;;;;;21.53;13.47;;;;;;;16.19;100.00;99989.56;5031547;28;20304;-60
2022/10/21 06:20:45;;;;;;;18.97;13.37;;;;;;;16.19;100.00;99989.56;5028786;28;20768;-60
2022/10/21 06:23:14;;;;;;;24.50;13.33;;;;;;;16.21;100.00;99992.03;5033177;28;20251;-61
2022/10/21 06:25:41;;;;;;;21.23;13.07;;;;;;;16.24;100.00;99991.66;5030250;28;20232;-62
2022/10/21 06:28:09;;;;;;;21.10;13.47;;;;;;;16.25;100.00;99997.84;5036281;28;20732;-63
2022/10/21 06:30:38;;;;;;;18.43;12.10;;;;;;;16.19;100.00;100002.94;5041139;28;20204;-62
2022/10/21 06:33:06;;;;;;;26.03;12.93;;;;;;;16.24;100.00;100001.53;5037347;28;20308;-63
2022/10/21 06:35:33;;;;;;;22.27;13.60;;;;;;;16.29;100.00;100005.25;5033077;28;20205;-62
2022/10/21 06:38:02;;;;;;;18.07;12.10;;;;;;;16.32;100.00;100004.06;5036855;28;20642;-63
2022/10/21 06:40:29;;;;;;;23.13;13.93;;;;;;;16.32;100.00;100010.22;5036747;28;20266;-61
2022/10/21 06:42:57;;;;;;;24.23;12.67;;;;;;;16.32;100.00;100009.41;5037545;28;20237;-62
2022/10/21 06:45:25;;;;;;;23.20;12.77;;;;;;;16.31;100.00;100019.28;5033725;28;20286;-61
2022/10/21 06:47:53;;;;;;;25.37;13.47;;;;;;;16.35;100.00;100035.78;5033429;28;20226;-64
2022/10/21 06:50:21;;;;;;;25.37;14.03;;;;;;;16.40;100.00;100044.03;5031235;28;20204;-64
2022/10/21 06:52:49;;;;;;;21.77;13.00;;;;;;;16.36;100.00;100048.13;5031180;28;21582;-64
2022/10/21 06:55:17;;;;;;;23.97;13.50;;;;;;;16.33;100.00;100056.53;5031060;28;20632;-63
2022/10/21 06:57:45;;;;;;;20.63;12.83;;;;;;;16.35;100.00;100070.56;5034586;28;20678;-62
2022/10/21 07:00:14;;;;;;;24.93;14.60;;;;;;;16.32;100.00;100069.09;5039992;28;20219;-63
2022/10/21 07:02:41;;;;;;;23.93;14.67;;;;;;;16.20;100.00;100065.28;5034639;28;20211;-63
2022/10/21 07:05:10;;;;;;;28.77;13.87;;;;;;;16.13;100.00;100051.88;5033713;28;20662;-63
2022/10/21 07:07:38;;;;;;;23.93;14.07;;;;;;;16.06;100.00;100051.00;5033866;28;20239;-63
2022/10/21 07:10:06;;;;;;;25.03;14.23;;;;;;;16.02;100.00;100051.56;5032189;28;20299;-63
2022/10/21 07:12:34;;;;;;;23.63;14.00;;;;;;;15.97;100.00;100060.19;5034499;28;20607;-62
2022/10/21 07:15:01;;;;;;;19.43;12.43;;;;;;;15.98;100.00;100064.50;5032068;28;20623;-62
2022/10/21 07:17:30;;;;;;;25.23;14.53;;;;;;;15.97;100.00;100057.50;5035007;28;20205;-63
2022/10/21 07:19:58;;;;;;;26.13;14.60;;;;;;;16.00;100.00;100064.31;5028639;28;20212;-62
2022/10/21 07:22:27;;;;;;;25.40;13.63;;;;;;;16.03;100.00;100064.75;5032636;28;20270;-62
2022/10/21 07:24:54;;;;;;;22.53;14.33;;;;;;;16.02;100.00;100057.72;4989967;28;20217;-61
2022/10/21 07:27:22;;;;;;;22.63;13.13;;;;;;;16.01;100.00;100064.09;4994700;28;20218;-61
2022/10/21 07:29:50;;;;;;;22.97;13.70;;;;;;;16.01;100.00;100061.44;4996183;28;20202;-62
2022/10/21 07:32:17;;;;;;;21.30;14.47;;;;;;;16.01;100.00;100056.06;4998962;28;21026;-61
2022/10/21 07:34:45;;;;;;;27.70;15.17;;;;;;;16.02;100.00;100049.72;4997799;28;20307;-62
2022/10/21 07:37:12;;;;;;;29.30;15.37;;;;;;;15.99;100.00;100052.78;4996488;28;20205;-62
2022/10/21 07:39:41;;;;;;;28.17;14.57;;;;;;;15.98;100.00;100055.66;4994441;28;20701;-62
2022/10/21 07:42:09;;;;;;;22.70;14.03;;;;;;;15.97;100.00;100048.66;4994319;28;20265;-62
2022/10/21 07:44:37;;;;;;;23.83;15.03;;;;;;;16.00;100.00;100054.44;4999789;28;20663;-61
2022/10/21 07:47:04;;;;;;;30.93;19.00;;;;;;;16.02;100.00;100047.03;4997708;28;20229;-61
2022/10/21 07:49:32;;;;;;;29.13;17.60;;;;;;;16.04;100.00;100050.34;4994209;28;20714;-60
2022/10/21 07:52:00;;;;;;;22.23;15.90;;;;;;;16.04;100.00;100050.34;5001366;28;20213;-60
2022/10/21 07:54:27;;;;;;;25.47;15.57;;;;;;;16.09;100.00;100047.94;4996626;28;20297;-60
2022/10/21 07:56:57;;;;;;;23.90;15.07;;;;;;;16.11;100.00;100045.88;4996827;28;20221;-61
2022/10/21 07:59:24;;;;;;;26.67;15.37;;;;;;;16.07;100.00;100049.16;4996857;28;20205;-61
2022/10/21 08:01:52;;;;;;;21.27;15.20;;;;;;;16.09;100.00;100050.63;4991725;28;20214;-61
2022/10/21 08:04:23;;;;;;;28.30;15.53;;;;;;;16.05;100.00;100046.66;4993035;28;20212;-61
2022/10/21 08:06:51;;;;;;;27.47;15.57;;;;;;;16.11;100.00;100045.88;4995201;28;20218;-61
2022/10/21 08:09:19;;;;;;;25.57;14.67;;;;;;;16.14;100.00;100045.50;4997172;28;20213;-61
2022/10/21 08:11:46;;;;;;;26.27;14.77;;;;;;;16.16;100.00;100054.16;4995826;28;20285;-61
2022/10/21 08:14:15;;;;;;;21.70;14.43;;;;;;;16.23;100.00;100058.72;5000142;28;20690;-60
2022/10/21 08:16:43;;;;;;;29.57;14.33;;;;;;;16.24;100.00;100060.38;4993699;28;20667;-61
2022/10/21 08:19:18;;;;;;;24.10;13.80;;;;;;;16.19;100.00;100059.09;4999875;28;20205;-60
2022/10/21 08:21:45;;;;;;;29.87;15.87;;;;;;;16.21;100.00;100060.75;4996036;28;20209;-61
2022/10/21 08:24:13;;;;;;;29.17;15.40;;;;;;;16.24;100.00;100055.03;5023832;28;20243;-60
2022/10/21 08:26:41;;;;;;;32.20;16.57;;;;;;;16.23;100.00;100058.72;5037816;28;20236;-59
2022/10/21 08:29:08;;;;;;;26.80;14.50;;;;;;;16.28;100.00;100053.59;5038520;28;20277;-62
2022/10/21 08:31:38;;;;;;;25.57;15.33;;;;;;;16.27;100.00;100039.41;5031411;28;20204;-62
2022/10/21 08:34:06;;;;;;;26.70;14.67;;;;;;;16.28;100.00;100002.78;5024912;28;20213;-62
2022/10/21 08:36:34;;;;;;;24.33;13.33;;;;;;;16.29;100.00;100010.63;5025500;28;20213;-63
2022/10/21 08:39:01;;;;;;;23.97;14.33;;;;;;;16.33;100.00;100056.53;5032854;28;20709;-63
2022/10/21 08:41:46;;;;;;;26.67;15.07;;;;;;;16.38;100.00;100070.97;5031771;28;20262;-63
2022/10/21 08:44:27;;;;;;;28.83;16.37;;;;;;;16.40;100.00;100081.50;5039797;28;20205;-62
2022/10/21 08:46:59;;;;;;;24.07;15.63;;;;;;;16.37;100.00;100077.34;5029991;28;20290;-62
2022/10/21 08:49:30;;;;;;;27.17;14.27;;;;;;;16.40;100.00;100073.47;5032084;28;20216;-62
2022/10/21 08:52:02;;;;;;;23.53;15.00;;;;;;;16.43;100.00;100079.25;5030434;28;20219;-61
2022/10/21 08:54:45;;;;;;;27.53;14.10;;;;;;;16.46;100.00;100086.06;5036618;28;20868;-63
2022/10/21 08:57:13;;;;;;;25.20;14.87;;;;;;;16.45;100.00;100085.22;5040467;28;20205;-62
2022/10/21 08:59:41;;;;;;;25.77;14.83;;;;;;;16.43;100.00;100075.75;5031981;28;20266;-61
2022/10/21 09:02:28;;;;;;;21.57;13.97;;;;;;;16.47;100.00;100068.97;5033020;28;20214;-62
2022/10/21 09:05:14;;;;;;;22.80;13.87;;;;;;;16.45;100.00;100069.16;5033229;28;20212;-62
2022/10/21 09:07:51;;;;;;;22.17;13.20;;;;;;;16.48;100.00;100067.97;5036023;28;20739;-63
2022/10/21 09:10:28;;;;;;;25.10;13.90;;;;;;;16.46;100.00;100067.31;5032331;28;20224;-62
2022/10/21 09:13:03;;;;;;;28.93;13.50;;;;;;;16.50;100.00;100068.59;5029910;28;20230;-63
2022/10/21 09:15:40;;;;;;;21.93;14.07;;;;;;;16.50;100.00;100077.44;5029035;28;20212;-63
2022/10/21 09:18:30;;;;;;;27.40;14.40;;;;;;;16.51;100.00;100080.97;5034938;28;20204;-62
2022/10/21 09:21:07;;;;;;;23.53;12.63;;;;;;;16.53;100.00;100076.25;5030612;28;20212;-62
2022/10/21 09:23:47;;;;;;;20.90;12.20;;;;;;;16.47;100.00;100082.34;5029566;28;20243;-62
2022/10/21 09:26:29;;;;;;;18.73;11.57;;;;;;;16.48;100.00;100090.19;5035420;28;20224;-62
2022/10/21 09:28:57;;;;;;;23.07;13.30;;;;;;;16.48;100.00;100094.72;5034330;28;20289;-64
2022/10/21 09:31:24;;;;;;;20.17;12.23;;;;;;;16.47;100.00;100095.75;5032548;28;20212;-63
2022/10/21 09:33:59;;;;;;;20.40;11.93;;;;;;;16.55;100.00;100100.94;5030518;28;20251;-63
2022/10/21 09:36:34;;;;;;;18.57;11.50;;;;;;;16.60;100.00;100095.84;5032195;28;20659;-63
2022/10/21 09:39:06;;;;;;;23.53;12.23;;;;;;;16.54;100.00;100099.28;5031537;28;20256;-63
2022/10/21 09:41:40;;;;;;;19.17;12.47;;;;;;;16.60;100.00;100097.69;5028718;28;20650;-63
2022/10/21 09:44:13;;;;;;;18.83;11.30;;;;;;;16.63;100.00;100103.50;5032998;28;20266;-62
2022/10/21 09:46:41;;;;;;;22.43;11.23;;;;;;;16.64;100.00;100110.50;5036632;28;20289;-60
2022/10/21 09:49:19;;;;;;;17.27;10.77;;;;;;;16.68;100.00;100111.78;5039901;28;20258;-60
2022/10/21 09:52:07;;;;;;;20.27;11.23;;;;;;;16.77;100.00;100121.31;5036050;28;20682;-61
2022/10/21 09:54:39;;;;;;;18.20;9.67;;;;;;;16.92;100.00;100119.34;5039486;28;20209;-62
2022/10/21 09:57:13;;;;;;;14.13;9.03;;;;;;;17.05;100.00;100113.25;5041763;28;20212;-63
2022/10/21 09:59:51;;;;;;;14.77;8.50;;;;;;;17.11;100.00;100116.97;5036803;28;20596;-63
2022/10/21 10:02:27;;;;;;;13.37;8.33;;;;;;;17.12;100.00;100124.81;5036995;28;20208;-64
2022/10/21 10:04:56;;;;;;;12.60;8.50;;;;;;;17.09;100.00;100121.69;5039632;28;20208;-63
2022/10/21 10:07:34;;;;;;;15.27;8.30;;;;;;;17.12;100.00;100123.97;5037720;28;20233;-62
2022/10/21 10:10:23;;;;;;;10.53;7.97;;;;;;;17.09;100.00;100119.00;5042608;28;20200;-63
2022/10/21 10:12:56;;;;;;;10.73;7.33;;;;;;;17.11;100.00;100125.81;5039452;28;20233;-62
2022/10/21 10:15:32;;;;;;;10.43;7.10;;;;;;;17.13;100.00;100122.97;5042035;28;20329;-63
2022/10/21 10:18:00;;;;;;;11.33;6.23;;;;;;;17.09;100.00;100117.16;5041014;28;20603;-62
2022/10/21 10:20:30;;;;;;;11.50;7.60;;;;;;;17.08;100.00;100122.72;5033770;28;20302;-62
2022/10/21 10:23:09;;;;;;;10.33;6.43;;;;;;;17.11;100.00;100125.00;5039732;28;20699;-62
2022/10/21 10:25:39;;;;;;;8.77;6.53;;;;;;;17.11;100.00;100130.34;5037786;28;20862;-62
2022/10/21 10:28:19;;;;;;;8.87;6.03;;;;;;;17.14;100.00;100133.47;5041842;28;20690;-62
2022/10/21 10:30:50;;;;;;;9.73;6.17;;;;;;;17.11;100.00;100139.22;5039824;28;20220;-63
2022/10/21 10:33:20;;;;;;;9.90;6.13;;;;;;;17.11;100.00;100139.22;5037052;28;20654;-62
2022/10/21 10:35:51;;;;;;;11.20;6.93;;;;;;;17.16;100.00;100136.75;5040479;28;20242;-62
2022/10/21 10:38:24;;;;;;;10.07;6.60;;;;;;;17.17;100.00;100142.94;5037239;28;20216;-62
2022/10/21 10:41:03;;;;;;;9.23;6.30;;;;;;;17.20;100.00;100132.66;5037730;28;20230;-63
2022/10/21 10:43:33;;;;;;;10.57;5.67;;;;;;;17.24;100.00;100133.09;5035877;28;20203;-63
2022/10/21 10:46:03;;;;;;;8.10;5.40;;;;;;;17.24;100.00;100127.72;5043073;28;20642;-62
2022/10/21 10:48:37;;;;;;;8.17;4.83;;;;;;;17.25;100.00;100129.38;5043262;28;20232;-62
2022/10/21 10:51:22;;;;;;;9.23;5.23;;;;;;;17.24;100.00;100133.91;5034673;28;20266;-62
2022/10/21 10:53:59;;;;;;;6.53;4.27;;;;;;;17.28;100.00;100129.81;5031718;28;20658;-64
2022/10/21 10:56:29;;;;;;;11.80;4.20;;;;;;;17.33;100.00;100126.53;5034726;28;20208;-63
2022/10/21 10:59:10;;;;;;;11.63;4.93;;;;;;;17.32;100.00;100114.19;5033295;28;20250;-63
2022/10/21 11:01:46;;;;;;;7.43;3.60;;;;;;;17.41;100.00;100115.66;5031145;28;21024;-63
2022/10/21 11:04:20;;;;;;;11.53;4.17;;;;;;;17.47;100.00;100112.16;5032288;28;20204;-64
2022/10/21 11:06:53;;;;;;;6.17;3.20;;;;;;;17.57;100.00;100112.63;5032147;28;20232;-64
2022/10/21 11:09:23;;;;;;;9.47;4.20;;;;;;;17.68;100.00;100112.03;5030004;28;20212;-64
2022/10/21 11:11:55;;;;;;;7.30;3.00;;;;;;;17.78;100.00;100108.13;5030602;28;20234;-62
2022/10/21 11:14:23;;;;;;;7.47;3.70;;;;;;;17.90;100.00;100095.78;5033909;28;20691;-63
2022/10/21 11:17:04;;;;;;;9.70;3.50;;;;;;;17.97;100.00;100075.16;5027524;28;20235;-63
2022/10/21 11:19:40;;;;;;;6.40;3.17;;;;;;;18.02;100.00;100088.78;5031154;28;20209;-63
2022/10/21 11:22:20;;;;;;;9.53;3.40;;;;;;;18.16;100.00;100079.69;5029472;28;20212;-63